sensor_id;sensor_type;location;lat;lon;timestamp;temperature;humidity
10057;DHT22;5068;51.286;7.518;2023-07-20T00:01:11;16.40;63.20
10057;DHT22;5068;51.286;7.518;2023-07-20T00:02:44;16.40;63.30
10057;DHT22;5068;51.286;7.518;2023-07-20T00:04:18;16.40;63.30
10057;DHT22;5068;51.286;7.518;2023-07-20T00:05:51;16.40;63.30
10057;DHT22;5068;51.286;7.518;2023-07-20T00:07:25;16.30;63.70
10057;DHT22;5068;51.286;7.518;2023-07-20T00:08:57;16.30;63.20
10057;DHT22;5068;51.286;7.518;2023-07-20T00:10:31;16.40;63.30
10057;DHT22;5068;51.286;7.518;2023-07-20T00:12:04;16.30;63.10
10057;DHT22;5068;51.286;7.518;2023-07-20T00:13:38;16.30;63.20
10057;DHT22;5068;51.286;7.518;2023-07-20T00:15:10;16.30;63.10
10057;DHT22;5068;51.286;7.518;2023-07-20T00:16:44;16.30;63.20
10057;DHT22;5068;51.286;7.518;2023-07-20T00:18:18;16.30;63.30
10057;DHT22;5068;51.286;7.518;2023-07-20T00:19:54;16.30;63.20
10057;DHT22;5068;51.286;7.518;2023-07-20T00:21:26;16.30;63.20
10057;DHT22;5068;51.286;7.518;2023-07-20T00:22:59;16.20;63.10
10057;DHT22;5068;51.286;7.518;2023-07-20T00:24:32;16.20;63.10
10057;DHT22;5068;51.286;7.518;2023-07-20T00:26:05;16.30;63.20
10057;DHT22;5068;51.286;7.518;2023-07-20T00:27:37;16.20;63.20
10057;DHT22;5068;51.286;7.518;2023-07-20T00:29:11;16.20;63.40
10057;DHT22;5068;51.286;7.518;2023-07-20T00:30:45;16.20;63.50
10057;DHT22;5068;51.286;7.518;2023-07-20T00:32:17;16.20;63.50
10057;DHT22;5068;51.286;7.518;2023-07-20T00:33:50;16.10;63.50
10057;DHT22;5068;51.286;7.518;2023-07-20T00:35:25;16.10;63.60
10057;DHT22;5068;51.286;7.518;2023-07-20T00:36:58;16.20;63.80
10057;DHT22;5068;51.286;7.518;2023-07-20T00:38:30;16.20;63.70
10057;DHT22;5068;51.286;7.518;2023-07-20T00:40:05;16.10;63.60
10057;DHT22;5068;51.286;7.518;2023-07-20T00:41:39;16.10;63.60
10057;DHT22;5068;51.286;7.518;2023-07-20T00:43:12;16.10;63.50
10057;DHT22;5068;51.286;7.518;2023-07-20T00:44:44;16.20;63.70
10057;DHT22;5068;51.286;7.518;2023-07-20T00:46:17;16.10;63.50
10057;DHT22;5068;51.286;7.518;2023-07-20T00:47:50;16.10;63.50
10057;DHT22;5068;51.286;7.518;2023-07-20T00:49:24;16.00;63.20
10057;DHT22;5068;51.286;7.518;2023-07-20T00:50:59;16.00;63.20
10057;DHT22;5068;51.286;7.518;2023-07-20T00:52:34;16.00;63.40
10057;DHT22;5068;51.286;7.518;2023-07-20T00:54:08;16.00;63.30
10057;DHT22;5068;51.286;7.518;2023-07-20T00:55:41;16.00;63.20
10057;DHT22;5068;51.286;7.518;2023-07-20T00:57:15;16.00;63.10
10057;DHT22;5068;51.286;7.518;2023-07-20T00:58:48;16.00;63.90
10057;DHT22;5068;51.286;7.518;2023-07-20T01:00:22;15.90;62.80
10057;DHT22;5068;51.286;7.518;2023-07-20T01:01:55;15.90;62.70
10057;DHT22;5068;51.286;7.518;2023-07-20T01:03:28;15.90;62.70
10057;DHT22;5068;51.286;7.518;2023-07-20T01:05:01;15.80;62.60
10057;DHT22;5068;51.286;7.518;2023-07-20T01:06:46;15.80;62.60
10057;DHT22;5068;51.286;7.518;2023-07-20T01:08:33;15.90;62.70
10057;DHT22;5068;51.286;7.518;2023-07-20T01:10:20;15.80;62.60
10057;DHT22;5068;51.286;7.518;2023-07-20T01:11:59;15.80;63.40
10057;DHT22;5068;51.286;7.518;2023-07-20T01:13:38;15.80;63.00
10057;DHT22;5068;51.286;7.518;2023-07-20T01:15:11;15.70;62.20
10057;DHT22;5068;51.286;7.518;2023-07-20T01:16:44;15.70;62.20
10057;DHT22;5068;51.286;7.518;2023-07-20T01:18:18;15.80;62.30
10057;DHT22;5068;51.286;7.518;2023-07-20T01:19:51;15.70;62.30
10057;DHT22;5068;51.286;7.518;2023-07-20T01:21:28;15.60;62.30
10057;DHT22;5068;51.286;7.518;2023-07-20T01:23:22;15.60;62.50
10057;DHT22;5068;51.286;7.518;2023-07-20T01:25:24;15.60;62.40
10057;DHT22;5068;51.286;7.518;2023-07-20T01:27:32;15.50;62.40
10057;DHT22;5068;51.286;7.518;2023-07-20T01:31:30;15.50;62.30
10057;DHT22;5068;51.286;7.518;2023-07-20T01:33:07;15.40;62.20
10057;DHT22;5068;51.286;7.518;2023-07-20T01:34:41;15.40;62.20
10057;DHT22;5068;51.286;7.518;2023-07-20T01:36:17;15.40;62.20
10057;DHT22;5068;51.286;7.518;2023-07-20T01:37:50;15.40;62.20
10057;DHT22;5068;51.286;7.518;2023-07-20T01:39:25;15.30;62.10
10057;DHT22;5068;51.286;7.518;2023-07-20T01:40:58;15.30;62.10
10057;DHT22;5068;51.286;7.518;2023-07-20T01:42:32;15.30;62.30
10057;DHT22;5068;51.286;7.518;2023-07-20T01:44:05;15.20;62.00
10057;DHT22;5068;51.286;7.518;2023-07-20T01:45:38;15.20;62.00
10057;DHT22;5068;51.286;7.518;2023-07-20T01:47:12;15.20;62.00
10057;DHT22;5068;51.286;7.518;2023-07-20T01:48:46;15.20;62.00
10057;DHT22;5068;51.286;7.518;2023-07-20T01:50:19;15.10;62.80
10057;DHT22;5068;51.286;7.518;2023-07-20T01:51:52;15.10;61.90
10057;DHT22;5068;51.286;7.518;2023-07-20T01:53:24;15.10;62.00
10057;DHT22;5068;51.286;7.518;2023-07-20T01:54:58;15.10;61.90
10057;DHT22;5068;51.286;7.518;2023-07-20T01:56:30;15.00;61.80
10057;DHT22;5068;51.286;7.518;2023-07-20T01:58:03;15.00;61.80
10057;DHT22;5068;51.286;7.518;2023-07-20T01:59:36;15.00;61.80
10057;DHT22;5068;51.286;7.518;2023-07-20T02:01:09;15.00;61.90
10057;DHT22;5068;51.286;7.518;2023-07-20T02:02:43;15.00;62.10
10057;DHT22;5068;51.286;7.518;2023-07-20T02:04:16;14.90;62.10
10057;DHT22;5068;51.286;7.518;2023-07-20T02:05:48;14.90;62.60
10057;DHT22;5068;51.286;7.518;2023-07-20T02:07:22;14.90;62.30
10057;DHT22;5068;51.286;7.518;2023-07-20T02:08:55;14.90;61.70
10057;DHT22;5068;51.286;7.518;2023-07-20T02:10:28;14.80;61.50
10057;DHT22;5068;51.286;7.518;2023-07-20T02:12:00;14.80;61.80
10057;DHT22;5068;51.286;7.518;2023-07-20T02:13:34;14.80;62.70
10057;DHT22;5068;51.286;7.518;2023-07-20T02:15:08;14.80;62.20
10057;DHT22;5068;51.286;7.518;2023-07-20T02:16:40;14.70;62.30
10057;DHT22;5068;51.286;7.518;2023-07-20T02:18:15;14.70;62.40
10057;DHT22;5068;51.286;7.518;2023-07-20T02:19:50;14.70;62.70
10057;DHT22;5068;51.286;7.518;2023-07-20T02:21:26;14.70;63.00
10057;DHT22;5068;51.286;7.518;2023-07-20T02:22:59;14.60;62.90
10057;DHT22;5068;51.286;7.518;2023-07-20T02:24:31;14.60;63.00
10057;DHT22;5068;51.286;7.518;2023-07-20T02:26:05;14.60;63.10
10057;DHT22;5068;51.286;7.518;2023-07-20T02:27:39;14.60;63.10
10057;DHT22;5068;51.286;7.518;2023-07-20T02:29:11;14.50;63.10
10057;DHT22;5068;51.286;7.518;2023-07-20T02:30:44;14.50;63.20
10057;DHT22;5068;51.286;7.518;2023-07-20T02:32:16;14.50;63.30
10057;DHT22;5068;51.286;7.518;2023-07-20T02:33:51;14.50;63.40
10057;DHT22;5068;51.286;7.518;2023-07-20T02:35:23;14.50;63.50
10057;DHT22;5068;51.286;7.518;2023-07-20T02:36:57;14.50;63.50
10057;DHT22;5068;51.286;7.518;2023-07-20T02:38:30;14.50;63.50
10057;DHT22;5068;51.286;7.518;2023-07-20T02:40:04;14.40;63.50
10057;DHT22;5068;51.286;7.518;2023-07-20T02:41:39;14.50;63.80
10057;DHT22;5068;51.286;7.518;2023-07-20T02:43:13;14.40;63.80
10057;DHT22;5068;51.286;7.518;2023-07-20T02:44:46;14.50;63.90
10057;DHT22;5068;51.286;7.518;2023-07-20T02:46:18;14.40;63.80
10057;DHT22;5068;51.286;7.518;2023-07-20T02:47:52;14.40;63.80
10057;DHT22;5068;51.286;7.518;2023-07-20T02:49:26;14.40;63.80
10057;DHT22;5068;51.286;7.518;2023-07-20T02:50:59;14.40;63.90
10057;DHT22;5068;51.286;7.518;2023-07-20T02:52:32;14.30;63.70
10057;DHT22;5068;51.286;7.518;2023-07-20T02:54:05;14.40;63.90
10057;DHT22;5068;51.286;7.518;2023-07-20T02:55:38;14.30;63.90
10057;DHT22;5068;51.286;7.518;2023-07-20T02:57:10;14.30;64.20
10057;DHT22;5068;51.286;7.518;2023-07-20T02:58:44;14.30;64.20
10057;DHT22;5068;51.286;7.518;2023-07-20T03:00:18;14.30;64.40
10057;DHT22;5068;51.286;7.518;2023-07-20T03:01:54;14.30;64.50
10057;DHT22;5068;51.286;7.518;2023-07-20T03:03:27;14.30;64.50
10057;DHT22;5068;51.286;7.518;2023-07-20T03:05:02;14.30;64.60
10057;DHT22;5068;51.286;7.518;2023-07-20T03:06:37;14.30;64.60
10057;DHT22;5068;51.286;7.518;2023-07-20T03:08:11;14.30;64.60
10057;DHT22;5068;51.286;7.518;2023-07-20T03:09:44;14.30;64.70
10057;DHT22;5068;51.286;7.518;2023-07-20T03:11:17;14.30;64.80
10057;DHT22;5068;51.286;7.518;2023-07-20T03:12:52;14.30;65.00
10057;DHT22;5068;51.286;7.518;2023-07-20T03:14:25;14.30;64.90
10057;DHT22;5068;51.286;7.518;2023-07-20T03:15:57;14.20;64.80
10057;DHT22;5068;51.286;7.518;2023-07-20T03:17:32;14.20;64.80
10057;DHT22;5068;51.286;7.518;2023-07-20T03:19:04;14.30;65.00
10057;DHT22;5068;51.286;7.518;2023-07-20T03:20:39;14.20;65.00
10057;DHT22;5068;51.286;7.518;2023-07-20T03:22:12;14.20;65.20
10057;DHT22;5068;51.286;7.518;2023-07-20T03:23:44;14.30;65.30
10057;DHT22;5068;51.286;7.518;2023-07-20T03:25:17;14.30;65.50
10057;DHT22;5068;51.286;7.518;2023-07-20T03:26:51;14.30;65.60
10057;DHT22;5068;51.286;7.518;2023-07-20T03:28:23;14.30;65.50
10057;DHT22;5068;51.286;7.518;2023-07-20T03:29:57;14.20;65.40
10057;DHT22;5068;51.286;7.518;2023-07-20T03:31:29;14.20;65.40
10057;DHT22;5068;51.286;7.518;2023-07-20T03:33:03;14.20;65.50
10057;DHT22;5068;51.286;7.518;2023-07-20T03:34:36;14.20;65.50
10057;DHT22;5068;51.286;7.518;2023-07-20T03:36:10;14.30;65.80
10057;DHT22;5068;51.286;7.518;2023-07-20T03:37:44;14.20;65.70
10057;DHT22;5068;51.286;7.518;2023-07-20T03:39:16;14.30;66.30
10057;DHT22;5068;51.286;7.518;2023-07-20T03:40:50;14.20;65.90
10057;DHT22;5068;51.286;7.518;2023-07-20T03:42:23;14.20;65.30
10057;DHT22;5068;51.286;7.518;2023-07-20T03:43:57;14.30;65.50
10057;DHT22;5068;51.286;7.518;2023-07-20T03:45:30;14.20;65.50
10057;DHT22;5068;51.286;7.518;2023-07-20T03:47:03;14.30;65.70
10057;DHT22;5068;51.286;7.518;2023-07-20T03:48:37;14.20;65.90
10057;DHT22;5068;51.286;7.518;2023-07-20T03:50:09;14.20;66.00
10057;DHT22;5068;51.286;7.518;2023-07-20T03:51:44;14.20;66.10
10057;DHT22;5068;51.286;7.518;2023-07-20T03:53:17;14.20;66.30
10057;DHT22;5068;51.286;7.518;2023-07-20T03:54:50;14.20;66.30
10057;DHT22;5068;51.286;7.518;2023-07-20T03:56:24;14.20;66.40
10057;DHT22;5068;51.286;7.518;2023-07-20T03:57:56;14.20;66.60
10057;DHT22;5068;51.286;7.518;2023-07-20T03:59:29;14.20;67.50
10057;DHT22;5068;51.286;7.518;2023-07-20T04:01:02;14.20;66.80
10057;DHT22;5068;51.286;7.518;2023-07-20T04:02:35;14.20;66.90
10057;DHT22;5068;51.286;7.518;2023-07-20T04:04:08;14.30;67.00
10057;DHT22;5068;51.286;7.518;2023-07-20T04:05:41;14.30;67.10
10057;DHT22;5068;51.286;7.518;2023-07-20T04:07:16;14.30;67.20
10057;DHT22;5068;51.286;7.518;2023-07-20T04:08:48;14.30;67.00
10057;DHT22;5068;51.286;7.518;2023-07-20T04:10:21;14.20;66.90
10057;DHT22;5068;51.286;7.518;2023-07-20T04:11:56;14.20;67.00
10057;DHT22;5068;51.286;7.518;2023-07-20T04:13:30;14.20;67.10
10057;DHT22;5068;51.286;7.518;2023-07-20T04:15:06;14.30;67.30
10057;DHT22;5068;51.286;7.518;2023-07-20T04:16:40;14.30;67.30
10057;DHT22;5068;51.286;7.518;2023-07-20T04:18:13;14.30;67.30
10057;DHT22;5068;51.286;7.518;2023-07-20T04:19:45;14.30;67.30
10057;DHT22;5068;51.286;7.518;2023-07-20T04:21:19;14.30;67.30
10057;DHT22;5068;51.286;7.518;2023-07-20T04:22:53;14.30;67.30
10057;DHT22;5068;51.286;7.518;2023-07-20T04:24:26;14.30;67.30
10057;DHT22;5068;51.286;7.518;2023-07-20T04:25:59;14.30;67.30
10057;DHT22;5068;51.286;7.518;2023-07-20T04:27:31;14.30;67.30
10057;DHT22;5068;51.286;7.518;2023-07-20T04:29:05;14.40;67.50
10057;DHT22;5068;51.286;7.518;2023-07-20T04:30:42;14.40;67.50
10057;DHT22;5068;51.286;7.518;2023-07-20T04:32:14;14.40;67.50
10057;DHT22;5068;51.286;7.518;2023-07-20T04:33:48;14.40;67.70
10057;DHT22;5068;51.286;7.518;2023-07-20T04:35:46;14.40;67.80
10057;DHT22;5068;51.286;7.518;2023-07-20T04:37:24;14.40;68.40
10057;DHT22;5068;51.286;7.518;2023-07-20T04:38:58;14.40;67.80
10057;DHT22;5068;51.286;7.518;2023-07-20T04:40:37;14.40;67.90
10057;DHT22;5068;51.286;7.518;2023-07-20T04:42:10;14.40;67.90
10057;DHT22;5068;51.286;7.518;2023-07-20T04:43:44;14.50;68.10
10057;DHT22;5068;51.286;7.518;2023-07-20T04:45:19;14.50;68.30
10057;DHT22;5068;51.286;7.518;2023-07-20T04:46:54;14.50;68.30
10057;DHT22;5068;51.286;7.518;2023-07-20T04:48:27;14.50;68.50
10057;DHT22;5068;51.286;7.518;2023-07-20T04:50:00;14.50;68.60
10057;DHT22;5068;51.286;7.518;2023-07-20T04:51:35;14.50;68.70
10057;DHT22;5068;51.286;7.518;2023-07-20T04:53:08;14.60;68.80
10057;DHT22;5068;51.286;7.518;2023-07-20T04:54:44;14.60;68.90
10057;DHT22;5068;51.286;7.518;2023-07-20T04:56:18;14.60;68.90
10057;DHT22;5068;51.286;7.518;2023-07-20T04:57:51;14.60;68.90
10057;DHT22;5068;51.286;7.518;2023-07-20T04:59:24;14.60;68.80
10057;DHT22;5068;51.286;7.518;2023-07-20T05:00:57;14.60;68.90
10057;DHT22;5068;51.286;7.518;2023-07-20T05:02:30;14.60;69.00
10057;DHT22;5068;51.286;7.518;2023-07-20T05:04:03;14.70;70.10
10057;DHT22;5068;51.286;7.518;2023-07-20T05:05:40;14.70;69.30
10057;DHT22;5068;51.286;7.518;2023-07-20T05:07:12;14.70;69.20
10057;DHT22;5068;51.286;7.518;2023-07-20T05:08:46;14.80;70.10
10057;DHT22;5068;51.286;7.518;2023-07-20T05:10:19;14.80;69.30
10057;DHT22;5068;51.286;7.518;2023-07-20T05:11:53;14.80;69.40
10057;DHT22;5068;51.286;7.518;2023-07-20T05:13:25;14.80;69.70
10057;DHT22;5068;51.286;7.518;2023-07-20T05:14:58;14.80;69.10
10057;DHT22;5068;51.286;7.518;2023-07-20T05:16:31;14.90;69.30
10057;DHT22;5068;51.286;7.518;2023-07-20T05:18:08;14.80;69.20
10057;DHT22;5068;51.286;7.518;2023-07-20T05:19:40;14.90;69.40
10057;DHT22;5068;51.286;7.518;2023-07-20T05:21:16;14.90;69.40
10057;DHT22;5068;51.286;7.518;2023-07-20T05:22:48;14.90;69.40
10057;DHT22;5068;51.286;7.518;2023-07-20T05:24:21;14.90;69.50
10057;DHT22;5068;51.286;7.518;2023-07-20T05:25:58;14.90;69.60
10057;DHT22;5068;51.286;7.518;2023-07-20T05:27:32;14.90;69.90
10057;DHT22;5068;51.286;7.518;2023-07-20T05:29:04;14.90;69.70
10057;DHT22;5068;51.286;7.518;2023-07-20T05:30:37;15.00;69.90
10057;DHT22;5068;51.286;7.518;2023-07-20T05:32:10;15.00;70.00
10057;DHT22;5068;51.286;7.518;2023-07-20T05:33:43;15.00;70.20
10057;DHT22;5068;51.286;7.518;2023-07-20T05:35:16;15.00;70.30
10057;DHT22;5068;51.286;7.518;2023-07-20T05:36:49;15.00;70.40
10057;DHT22;5068;51.286;7.518;2023-07-20T05:38:22;15.00;70.30
10057;DHT22;5068;51.286;7.518;2023-07-20T05:39:55;15.10;70.40
10057;DHT22;5068;51.286;7.518;2023-07-20T05:41:31;15.10;70.50
10057;DHT22;5068;51.286;7.518;2023-07-20T05:43:03;15.10;70.70
10057;DHT22;5068;51.286;7.518;2023-07-20T05:44:37;15.10;70.70
10057;DHT22;5068;51.286;7.518;2023-07-20T05:46:12;15.10;70.70
10057;DHT22;5068;51.286;7.518;2023-07-20T05:47:46;15.10;70.60
10057;DHT22;5068;51.286;7.518;2023-07-20T05:49:20;15.20;70.90
10057;DHT22;5068;51.286;7.518;2023-07-20T05:50:52;15.20;70.70
10057;DHT22;5068;51.286;7.518;2023-07-20T05:52:25;15.10;70.60
10057;DHT22;5068;51.286;7.518;2023-07-20T05:53:58;15.20;70.60
10057;DHT22;5068;51.286;7.518;2023-07-20T05:55:31;15.20;70.60
10057;DHT22;5068;51.286;7.518;2023-07-20T05:57:05;15.20;70.60
10057;DHT22;5068;51.286;7.518;2023-07-20T05:58:38;15.20;70.70
10057;DHT22;5068;51.286;7.518;2023-07-20T06:00:11;15.30;70.60
10057;DHT22;5068;51.286;7.518;2023-07-20T06:01:46;15.20;70.60
10057;DHT22;5068;51.286;7.518;2023-07-20T06:03:22;15.20;70.50
10057;DHT22;5068;51.286;7.518;2023-07-20T06:04:55;15.20;70.50
10057;DHT22;5068;51.286;7.518;2023-07-20T06:06:27;15.30;70.50
10057;DHT22;5068;51.286;7.518;2023-07-20T06:08:00;15.30;70.50
10057;DHT22;5068;51.286;7.518;2023-07-20T06:09:33;15.30;70.50
10057;DHT22;5068;51.286;7.518;2023-07-20T06:11:06;15.30;70.60
10057;DHT22;5068;51.286;7.518;2023-07-20T06:12:41;15.40;70.90
10057;DHT22;5068;51.286;7.518;2023-07-20T06:14:17;15.30;71.20
10057;DHT22;5068;51.286;7.518;2023-07-20T06:15:50;15.40;71.60
10057;DHT22;5068;51.286;7.518;2023-07-20T06:17:23;15.40;71.60
10057;DHT22;5068;51.286;7.518;2023-07-20T06:18:55;15.50;71.80
10057;DHT22;5068;51.286;7.518;2023-07-20T06:20:28;15.50;71.60
10057;DHT22;5068;51.286;7.518;2023-07-20T06:22:01;15.60;71.20
10057;DHT22;5068;51.286;7.518;2023-07-20T06:23:35;15.60;71.40
10057;DHT22;5068;51.286;7.518;2023-07-20T06:25:07;15.70;70.30
10057;DHT22;5068;51.286;7.518;2023-07-20T06:26:41;15.70;70.30
10057;DHT22;5068;51.286;7.518;2023-07-20T06:28:15;15.80;70.40
10057;DHT22;5068;51.286;7.518;2023-07-20T06:29:49;15.80;70.20
10057;DHT22;5068;51.286;7.518;2023-07-20T06:31:23;15.90;70.10
10057;DHT22;5068;51.286;7.518;2023-07-20T06:32:56;15.90;69.90
10057;DHT22;5068;51.286;7.518;2023-07-20T06:34:29;16.00;69.80
10057;DHT22;5068;51.286;7.518;2023-07-20T06:36:02;16.00;69.20
10057;DHT22;5068;51.286;7.518;2023-07-20T06:37:36;16.00;69.20
10057;DHT22;5068;51.286;7.518;2023-07-20T06:39:08;16.00;69.20
10057;DHT22;5068;51.286;7.518;2023-07-20T06:40:46;16.10;69.30
10057;DHT22;5068;51.286;7.518;2023-07-20T06:42:20;16.10;69.30
10057;DHT22;5068;51.286;7.518;2023-07-20T06:43:56;16.10;69.30
10057;DHT22;5068;51.286;7.518;2023-07-20T06:45:30;16.20;69.40
10057;DHT22;5068;51.286;7.518;2023-07-20T06:47:04;16.20;69.40
10057;DHT22;5068;51.286;7.518;2023-07-20T06:48:37;16.20;69.10
10057;DHT22;5068;51.286;7.518;2023-07-20T06:50:12;16.20;69.00
10057;DHT22;5068;51.286;7.518;2023-07-20T06:51:49;16.30;69.30
10057;DHT22;5068;51.286;7.518;2023-07-20T06:53:21;16.30;68.80
10057;DHT22;5068;51.286;7.518;2023-07-20T06:54:54;16.30;68.90
10057;DHT22;5068;51.286;7.518;2023-07-20T06:56:26;16.40;69.00
10057;DHT22;5068;51.286;7.518;2023-07-20T06:58:02;16.40;68.90
10057;DHT22;5068;51.286;7.518;2023-07-20T06:59:41;16.40;68.70
10057;DHT22;5068;51.286;7.518;2023-07-20T07:01:14;16.40;68.30
10057;DHT22;5068;51.286;7.518;2023-07-20T07:02:47;16.30;67.60
10057;DHT22;5068;51.286;7.518;2023-07-20T07:04:22;16.50;68.10
10057;DHT22;5068;51.286;7.518;2023-07-20T07:05:55;16.50;68.10
10057;DHT22;5068;51.286;7.518;2023-07-20T07:07:29;16.50;68.20
10057;DHT22;5068;51.286;7.518;2023-07-20T07:09:01;16.50;68.10
10057;DHT22;5068;51.286;7.518;2023-07-20T07:10:36;16.50;67.90
10057;DHT22;5068;51.286;7.518;2023-07-20T07:12:08;16.60;67.60
10057;DHT22;5068;51.286;7.518;2023-07-20T07:13:42;16.60;67.30
10057;DHT22;5068;51.286;7.518;2023-07-20T07:15:15;16.50;67.10
10057;DHT22;5068;51.286;7.518;2023-07-20T07:16:48;16.50;67.00
10057;DHT22;5068;51.286;7.518;2023-07-20T07:18:23;16.60;67.00
10057;DHT22;5068;51.286;7.518;2023-07-20T07:19:56;16.60;66.90
10057;DHT22;5068;51.286;7.518;2023-07-20T07:21:29;16.60;67.00
10057;DHT22;5068;51.286;7.518;2023-07-20T07:23:03;16.60;66.90
10057;DHT22;5068;51.286;7.518;2023-07-20T07:24:35;16.60;67.10
10057;DHT22;5068;51.286;7.518;2023-07-20T07:26:09;16.60;67.20
10057;DHT22;5068;51.286;7.518;2023-07-20T07:27:42;16.60;67.30
10057;DHT22;5068;51.286;7.518;2023-07-20T07:29:16;16.60;67.30
10057;DHT22;5068;51.286;7.518;2023-07-20T07:30:50;16.60;67.10
10057;DHT22;5068;51.286;7.518;2023-07-20T07:32:24;16.70;67.30
10057;DHT22;5068;51.286;7.518;2023-07-20T07:33:57;16.70;67.50
10057;DHT22;5068;51.286;7.518;2023-07-20T07:35:29;16.60;67.30
10057;DHT22;5068;51.286;7.518;2023-07-20T07:37:03;16.70;67.10
10057;DHT22;5068;51.286;7.518;2023-07-20T07:38:36;16.80;67.00
10057;DHT22;5068;51.286;7.518;2023-07-20T07:40:31;16.80;66.90
10057;DHT22;5068;51.286;7.518;2023-07-20T07:42:04;16.80;66.90
10057;DHT22;5068;51.286;7.518;2023-07-20T07:43:38;16.80;66.90
10057;DHT22;5068;51.286;7.518;2023-07-20T07:45:11;16.80;66.90
10057;DHT22;5068;51.286;7.518;2023-07-20T07:46:46;16.90;67.00
10057;DHT22;5068;51.286;7.518;2023-07-20T07:48:19;16.90;66.90
10057;DHT22;5068;51.286;7.518;2023-07-20T07:49:53;16.90;66.40
10057;DHT22;5068;51.286;7.518;2023-07-20T07:51:26;16.90;66.10
10057;DHT22;5068;51.286;7.518;2023-07-20T07:53:00;16.90;65.70
10057;DHT22;5068;51.286;7.518;2023-07-20T07:54:32;17.00;66.20
10057;DHT22;5068;51.286;7.518;2023-07-20T07:56:07;17.00;65.70
10057;DHT22;5068;51.286;7.518;2023-07-20T07:57:40;17.00;65.50
10057;DHT22;5068;51.286;7.518;2023-07-20T07:59:13;17.10;66.00
10057;DHT22;5068;51.286;7.518;2023-07-20T08:00:45;17.10;66.20
10057;DHT22;5068;51.286;7.518;2023-07-20T08:02:21;17.10;65.80
10057;DHT22;5068;51.286;7.518;2023-07-20T08:03:54;17.10;66.30
10057;DHT22;5068;51.286;7.518;2023-07-20T08:05:27;17.20;65.70
10057;DHT22;5068;51.286;7.518;2023-07-20T08:07:00;17.20;65.70
10057;DHT22;5068;51.286;7.518;2023-07-20T08:08:33;17.20;65.50
10057;DHT22;5068;51.286;7.518;2023-07-20T08:10:06;17.30;65.50
10057;DHT22;5068;51.286;7.518;2023-07-20T08:11:40;17.30;65.30
10057;DHT22;5068;51.286;7.518;2023-07-20T08:13:13;17.30;65.20
10057;DHT22;5068;51.286;7.518;2023-07-20T08:14:46;17.40;65.10
10057;DHT22;5068;51.286;7.518;2023-07-20T08:16:19;17.40;64.90
10057;DHT22;5068;51.286;7.518;2023-07-20T08:17:53;17.40;65.10
10057;DHT22;5068;51.286;7.518;2023-07-20T08:19:27;17.40;65.20
10057;DHT22;5068;51.286;7.518;2023-07-20T08:20:59;17.50;64.80
10057;DHT22;5068;51.286;7.518;2023-07-20T08:22:32;17.50;64.40
10057;DHT22;5068;51.286;7.518;2023-07-20T08:24:06;17.50;64.20
10057;DHT22;5068;51.286;7.518;2023-07-20T08:25:39;17.60;63.80
10057;DHT22;5068;51.286;7.518;2023-07-20T08:27:15;17.60;63.60
10057;DHT22;5068;51.286;7.518;2023-07-20T08:28:48;17.60;63.60
10057;DHT22;5068;51.286;7.518;2023-07-20T08:30:21;17.70;64.30
10057;DHT22;5068;51.286;7.518;2023-07-20T08:31:55;17.70;64.20
10057;DHT22;5068;51.286;7.518;2023-07-20T08:33:30;17.80;64.20
10057;DHT22;5068;51.286;7.518;2023-07-20T08:35:06;17.90;64.30
10057;DHT22;5068;51.286;7.518;2023-07-20T08:36:38;17.90;63.50
10057;DHT22;5068;51.286;7.518;2023-07-20T08:38:12;18.00;62.90
10057;DHT22;5068;51.286;7.518;2023-07-20T08:39:44;18.00;62.90
10057;DHT22;5068;51.286;7.518;2023-07-20T08:41:18;18.10;63.00
10057;DHT22;5068;51.286;7.518;2023-07-20T08:42:52;18.10;62.70
10057;DHT22;5068;51.286;7.518;2023-07-20T08:44:27;18.20;62.60
10057;DHT22;5068;51.286;7.518;2023-07-20T08:46:00;18.30;62.70
10057;DHT22;5068;51.286;7.518;2023-07-20T08:47:34;18.30;62.10
10057;DHT22;5068;51.286;7.518;2023-07-20T08:49:09;18.40;61.60
10057;DHT22;5068;51.286;7.518;2023-07-20T08:50:44;18.40;61.50
10057;DHT22;5068;51.286;7.518;2023-07-20T08:52:20;18.50;61.70
10057;DHT22;5068;51.286;7.518;2023-07-20T08:53:53;18.50;61.50
10057;DHT22;5068;51.286;7.518;2023-07-20T08:55:26;18.50;61.10
10057;DHT22;5068;51.286;7.518;2023-07-20T08:57:02;18.60;60.50
10057;DHT22;5068;51.286;7.518;2023-07-20T08:58:35;18.60;59.70
10057;DHT22;5068;51.286;7.518;2023-07-20T09:00:11;18.60;59.40
10057;DHT22;5068;51.286;7.518;2023-07-20T09:01:46;18.70;59.50
10057;DHT22;5068;51.286;7.518;2023-07-20T09:03:20;18.60;59.40
10057;DHT22;5068;51.286;7.518;2023-07-20T09:04:55;18.60;59.20
10057;DHT22;5068;51.286;7.518;2023-07-20T09:06:28;18.70;59.10
10057;DHT22;5068;51.286;7.518;2023-07-20T09:08:02;18.70;58.80
10057;DHT22;5068;51.286;7.518;2023-07-20T09:09:39;18.70;58.70
10057;DHT22;5068;51.286;7.518;2023-07-20T09:11:14;18.70;58.80
10057;DHT22;5068;51.286;7.518;2023-07-20T09:12:47;18.60;59.20
10057;DHT22;5068;51.286;7.518;2023-07-20T09:14:23;18.70;59.50
10057;DHT22;5068;51.286;7.518;2023-07-20T09:15:58;18.70;59.50
10057;DHT22;5068;51.286;7.518;2023-07-20T09:17:31;18.70;59.80
10057;DHT22;5068;51.286;7.518;2023-07-20T09:19:04;18.70;59.50
10057;DHT22;5068;51.286;7.518;2023-07-20T09:20:40;18.70;59.50
10057;DHT22;5068;51.286;7.518;2023-07-20T09:22:14;18.70;59.10
10057;DHT22;5068;51.286;7.518;2023-07-20T09:23:47;18.80;58.70
10057;DHT22;5068;51.286;7.518;2023-07-20T09:25:22;18.90;58.40
10057;DHT22;5068;51.286;7.518;2023-07-20T09:27:01;18.90;57.90
10057;DHT22;5068;51.286;7.518;2023-07-20T09:28:41;19.00;57.40
10057;DHT22;5068;51.286;7.518;2023-07-20T09:30:16;19.10;57.40
10057;DHT22;5068;51.286;7.518;2023-07-20T09:32:00;19.10;57.40
10057;DHT22;5068;51.286;7.518;2023-07-20T09:33:33;19.10;56.60
10057;DHT22;5068;51.286;7.518;2023-07-20T09:35:31;19.20;57.20
10057;DHT22;5068;51.286;7.518;2023-07-20T09:37:20;19.20;57.30
10057;DHT22;5068;51.286;7.518;2023-07-20T09:38:53;19.20;56.80
10057;DHT22;5068;51.286;7.518;2023-07-20T09:40:30;19.30;57.20
10057;DHT22;5068;51.286;7.518;2023-07-20T09:42:05;19.30;57.00
10057;DHT22;5068;51.286;7.518;2023-07-20T09:43:42;19.30;56.60
10057;DHT22;5068;51.286;7.518;2023-07-20T09:45:15;19.30;56.40
10057;DHT22;5068;51.286;7.518;2023-07-20T09:46:50;19.40;56.60
10057;DHT22;5068;51.286;7.518;2023-07-20T09:48:25;19.40;56.40
10057;DHT22;5068;51.286;7.518;2023-07-20T09:50:02;19.40;56.10
10057;DHT22;5068;51.286;7.518;2023-07-20T09:51:38;19.40;56.00
10057;DHT22;5068;51.286;7.518;2023-07-20T09:53:13;19.40;55.80
10057;DHT22;5068;51.286;7.518;2023-07-20T09:54:46;19.50;56.00
10057;DHT22;5068;51.286;7.518;2023-07-20T09:56:21;19.40;55.90
10057;DHT22;5068;51.286;7.518;2023-07-20T09:57:56;19.40;55.60
10057;DHT22;5068;51.286;7.518;2023-07-20T09:59:30;19.50;56.40
10057;DHT22;5068;51.286;7.518;2023-07-20T10:01:03;19.50;56.10
10057;DHT22;5068;51.286;7.518;2023-07-20T10:02:42;19.50;55.80
10057;DHT22;5068;51.286;7.518;2023-07-20T10:04:16;19.60;55.30
10057;DHT22;5068;51.286;7.518;2023-07-20T10:05:56;19.60;54.90
10057;DHT22;5068;51.286;7.518;2023-07-20T10:07:30;19.60;54.30